Time;durP1;ratioP1;P1;durP2;ratioP2;P2;SDS_P1;SDS_P2;PMS_P1;PMS_P2;Temp;Humidity;BMP_temperature;BMP_pressure;BME280_temperature;BME280_humidity;BME280_pressure;Samples;Min_cycle;Max_cycle;Signal;HPM_P1;HPM_P2
2022/09/14 00:01:23;;;;;;;9.25;3.42;;;;;;;17.72;81.09;100593.38;3587739;39;20056;-64
2022/09/14 00:03:57;;;;;;;8.10;3.85;;;;;;;17.50;80.06;100563.81;3588075;39;20071;-62
2022/09/14 00:06:24;;;;;;;10.18;4.00;;;;;;;17.61;80.79;100579.97;3588179;39;20122;-65
2022/09/14 00:08:53;;;;;;;11.10;4.38;;;;;;;17.58;82.50;100574.84;3587028;39;20100;-63
2022/09/14 00:11:23;;;;;;;7.47;3.65;;;;;;;17.57;82.17;100570.38;3585672;39;20079;-64
2022/09/14 00:13:49;;;;;;;10.52;4.22;;;;;;;17.55;82.32;100569.69;3587571;39;20054;-66
2022/09/14 00:16:23;;;;;;;8.45;3.90;;;;;;;17.54;82.28;100574.28;3586783;39;20079;-64
2022/09/14 00:18:59;;;;;;;;;;;;;;;17.52;82.27;100572.69;3589995;39;20438;-63
2022/09/14 00:21:27;;;;;;;9.30;3.80;;;;;;;17.47;81.70;100572.28;3587555;39;20606;-64
2022/09/14 00:23:53;;;;;;;8.48;3.63;;;;;;;17.51;82.41;100584.59;3588984;39;20121;-65
2022/09/14 00:26:22;;;;;;;8.38;3.88;;;;;;;17.50;81.89;100583.69;3588955;39;20083;-65
2022/09/14 00:28:53;;;;;;;4.60;2.90;;;;;;;17.48;81.23;100582.16;3587890;39;20044;-63
2022/09/14 00:31:20;;;;;;;7.72;3.50;;;;;;;17.44;82.07;100584.28;3586326;39;20063;-63
2022/09/14 00:33:49;;;;;;;10.65;3.42;;;;;;;17.39;81.53;100582.00;3588619;39;20051;-64
2022/09/14 00:36:23;;;;;;;8.18;3.30;;;;;;;17.32;80.83;100575.44;3587582;39;20064;-63
2022/09/14 00:38:50;;;;;;;9.25;3.58;;;;;;;17.10;82.17;100537.72;3587860;39;20052;-63
2022/09/14 00:41:22;;;;;;;8.45;3.78;;;;;;;17.31;82.17;100571.00;3589258;39;20056;-63
2022/09/14 00:44:27;;;;;;;9.48;3.60;;;;;;;17.24;81.65;100564.44;3589185;39;20366;-63
2022/09/14 00:46:57;;;;;;;6.43;2.95;;;;;;;17.21;81.81;100553.00;3587561;39;20358;-63
2022/09/14 00:49:25;;;;;;;11.07;3.63;;;;;;;17.19;81.25;100558.59;3587439;39;20390;-63
2022/09/14 00:52:19;;;;;;;8.20;3.50;;;;;;;17.15;80.83;100543.56;3587680;39;20056;-63
2022/09/14 00:54:51;;;;;;;7.10;3.70;;;;;;;17.11;82.11;100544.88;3587322;39;20068;-64
2022/09/14 00:57:19;;;;;;;5.78;3.30;;;;;;;17.08;81.92;100539.72;3588060;39;20067;-62
2022/09/14 00:59:49;;;;;;;6.95;3.72;;;;;;;17.05;82.64;100540.00;3588079;39;20058;-64
2022/09/14 01:02:17;;;;;;;7.22;3.70;;;;;;;17.06;83.25;100531.72;3589332;39;20056;-63
2022/09/14 01:04:43;;;;;;;6.43;3.60;;;;;;;17.06;83.72;100515.44;3588947;39;20387;-63
2022/09/14 01:07:32;;;;;;;8.65;3.50;;;;;;;17.05;83.58;100519.13;3589405;39;20051;-63
2022/09/14 01:10:11;;;;;;;8.45;4.20;;;;;;;17.04;83.73;100516.56;3590405;39;20085;-63
2022/09/14 01:13:10;;;;;;;9.40;4.00;;;;;;;16.96;83.72;100519.13;3588380;39;20310;-64
2022/09/14 01:16:19;;;;;;;11.35;4.00;;;;;;;16.91;84.13;100511.44;3591835;39;20056;-62
2022/09/14 01:19:09;;;;;;;8.38;4.25;;;;;;;16.89;83.66;100508.84;3590781;39;20044;-66
2022/09/14 01:21:41;;;;;;;8.48;3.90;;;;;;;16.91;84.45;100503.28;3590816;39;20125;-64
2022/09/14 01:24:23;;;;;;;8.40;4.32;;;;;;;16.93;84.94;100510.28;3587245;39;20104;-63
2022/09/14 01:26:57;;;;;;;10.25;4.10;;;;;;;16.93;84.55;100510.28;3590295;39;20067;-64
2022/09/14 01:29:38;;;;;;;9.57;3.97;;;;;;;16.91;84.10;100515.00;3588294;39;20056;-63
2022/09/14 01:32:23;;;;;;;8.48;3.80;;;;;;;16.92;84.60;100518.56;3588091;39;20056;-63
2022/09/14 01:35:18;;;;;;;4.95;3.75;;;;;;;16.91;84.49;100514.16;3592257;39;20055;-63
2022/09/14 01:37:54;;;;;;;7.50;3.72;;;;;;;16.92;85.03;100514.00;3591249;39;20389;-63
2022/09/14 01:40:32;;;;;;;8.48;3.70;;;;;;;16.91;84.44;100520.44;3588719;39;20407;-65
2022/09/14 01:43:12;;;;;;;10.40;3.42;;;;;;;16.90;83.36;100517.84;3590350;39;20188;-63
2022/09/14 01:45:48;;;;;;;7.50;3.63;;;;;;;16.86;84.20;100509.13;3592700;39;20056;-63
2022/09/14 01:48:32;;;;;;;6.68;3.60;;;;;;;16.89;83.37;100506.13;3589112;39;20060;-63
2022/09/14 01:51:05;;;;;;;7.65;3.88;;;;;;;16.77;83.88;100488.28;3588841;39;20303;-64
2022/09/14 01:53:42;;;;;;;7.00;3.10;;;;;;;16.89;84.22;100503.41;3588460;39;20064;-64
2022/09/14 01:56:37;;;;;;;9.05;3.42;;;;;;;16.88;84.00;100496.28;3590073;39;20274;-63
2022/09/14 01:59:15;;;;;;;7.28;3.53;;;;;;;16.87;82.63;100500.00;3588627;39;20051;-65
2022/09/14 02:01:59;;;;;;;11.40;3.72;;;;;;;16.87;83.48;100497.31;3591661;39;20086;-64
2022/09/14 02:04:55;;;;;;;7.35;3.47;;;;;;;16.79;82.71;100480.84;3590348;39;20125;-63
2022/09/14 02:07:22;;;;;;;8.07;3.10;;;;;;;16.85;83.05;100501.16;3588713;39;20067;-64
2022/09/14 02:09:51;;;;;;;6.53;3.05;;;;;;;16.83;82.63;100493.13;3588358;39;20044;-64
2022/09/14 02:12:17;;;;;;;9.75;3.47;;;;;;;16.82;83.02;100494.16;3589612;39;20044;-63
2022/09/14 02:14:46;;;;;;;5.90;3.00;;;;;;;16.80;82.39;100498.84;3590005;39;20048;-64
2022/09/14 02:17:13;;;;;;;10.70;3.60;;;;;;;16.62;82.61;100470.69;3585772;39;20219;-64
2022/09/14 02:19:55;;;;;;;8.45;3.35;;;;;;;16.76;81.67;100499.28;3588317;39;20075;-64
2022/09/14 02:22:22;;;;;;;7.22;3.20;;;;;;;16.58;81.84;100467.38;3588368;39;20232;-63
2022/09/14 02:24:49;;;;;;;8.85;3.22;;;;;;;16.74;82.43;100498.53;3589936;39;20040;-64
2022/09/14 02:27:15;;;;;;;12.88;3.83;;;;;;;16.71;81.62;100503.28;3590202;39;20472;-63
2022/09/14 02:29:41;;;;;;;9.05;3.55;;;;;;;16.67;81.79;100503.69;3588587;39;20047;-63
2022/09/14 02:32:34;;;;;;;8.82;3.08;;;;;;;16.65;82.55;100497.53;3589918;39;20107;-65
2022/09/14 02:35:30;;;;;;;8.55;3.40;;;;;;;16.70;83.10;100508.81;3591592;39;20124;-64
2022/09/14 02:38:02;;;;;;;8.68;3.40;;;;;;;16.73;82.87;100508.53;3587295;39;20059;-64
2022/09/14 02:40:45;;;;;;;10.02;3.47;;;;;;;16.70;82.61;100496.09;3589734;39;20116;-63
2022/09/14 02:43:36;;;;;;;10.30;3.25;;;;;;;16.68;82.53;100499.97;3589198;39;20494;-64
2022/09/14 02:46:57;;;;;;;8.52;3.20;;;;;;;16.67;82.59;100503.69;3587487;39;20043;-66
2022/09/14 02:49:50;;;;;;;5.88;3.17;;;;;;;16.66;82.50;100496.53;3589101;39;20129;-64
2022/09/14 02:52:34;;;;;;;6.28;3.55;;;;;;;16.61;81.25;100487.97;3589791;39;20367;-64
2022/09/14 02:55:18;;;;;;;8.27;3.20;;;;;;;16.62;82.62;100485.13;3587467;39;20441;-63
2022/09/14 02:58:06;;;;;;;9.05;3.22;;;;;;;16.62;81.97;100490.56;3589805;39;20271;-64
2022/09/14 03:00:39;;;;;;;9.48;3.60;;;;;;;16.67;82.70;100490.09;3587784;39;20059;-65
2022/09/14 03:03:08;;;;;;;7.28;3.47;;;;;;;16.67;82.47;100485.53;3590183;39;20051;-65
2022/09/14 03:05:34;;;;;;;7.05;3.28;;;;;;;16.30;82.37;100413.97;3589217;39;20047;-63
2022/09/14 03:08:01;;;;;;;8.25;3.47;;;;;;;16.66;82.73;100481.13;3588071;39;20378;-64
2022/09/14 03:10:28;;;;;;;7.13;3.63;;;;;;;16.67;82.30;100481.97;3587119;39;20058;-64
2022/09/14 03:12:53;;;;;;;7.95;3.47;;;;;;;16.64;81.74;100476.81;3589602;39;20066;-62
2022/09/14 03:15:19;;;;;;;8.50;3.40;;;;;;;16.65;83.20;100473.09;3589505;39;20063;-64
2022/09/14 03:17:49;;;;;;;10.55;3.80;;;;;;;16.63;83.80;100473.25;3588434;39;20355;-65
2022/09/14 03:20:28;;;;;;;10.38;3.20;;;;;;;16.60;82.69;100470.81;3587994;39;20318;-63
2022/09/14 03:22:54;;;;;;;6.65;3.20;;;;;;;16.33;83.32;100422.69;3589075;39;20063;-63
2022/09/14 03:25:23;;;;;;;6.70;3.10;;;;;;;16.62;83.13;100470.69;3586245;39;20091;-64
2022/09/14 03:27:53;;;;;;;6.28;3.03;;;;;;;16.33;83.50;100419.09;3586699;39;20376;-63
2022/09/14 03:30:19;;;;;;;7.32;3.47;;;;;;;16.61;83.34;100464.38;3589060;39;20382;-62
2022/09/14 03:32:46;;;;;;;10.10;3.80;;;;;;;16.52;82.79;100440.81;3587770;39;20112;-64
2022/09/14 03:35:13;;;;;;;7.80;3.90;;;;;;;16.58;82.14;100450.25;3591815;39;20050;-64
2022/09/14 03:37:41;;;;;;;10.65;3.45;;;;;;;16.57;82.14;100453.97;3588679;39;20067;-64
2022/09/14 03:40:10;;;;;;;6.50;3.22;;;;;;;16.57;82.43;100453.97;3588248;39;20347;-62
2022/09/14 03:42:40;;;;;;;8.10;3.28;;;;;;;16.48;82.48;100429.41;3588519;39;20307;-63
2022/09/14 03:45:06;;;;;;;8.10;3.60;;;;;;;16.54;82.07;100432.56;3589637;39;20048;-61
2022/09/14 03:47:32;;;;;;;7.28;3.45;;;;;;;16.52;82.15;100434.53;3588587;39;20055;-62
2022/09/14 03:49:57;;;;;;;9.25;3.78;;;;;;;16.33;82.91;100403.69;3588757;39;20485;-63
2022/09/14 03:52:23;;;;;;;7.38;3.50;;;;;;;16.50;83.13;100437.41;3588462;39;20040;-63
2022/09/14 03:54:49;;;;;;;7.18;3.70;;;;;;;16.47;83.28;100435.84;3587386;39;20429;-64
2022/09/14 03:57:15;;;;;;;10.90;3.70;;;;;;;16.45;83.55;100429.69;3588198;39;20048;-63
2022/09/14 03:59:40;;;;;;;9.43;3.47;;;;;;;16.43;82.93;100429.00;3587059;39;20056;-64
2022/09/14 04:02:06;;;;;;;8.90;3.65;;;;;;;16.42;83.49;100427.25;3587349;39;20063;-64
2022/09/14 04:04:32;;;;;;;9.40;3.60;;;;;;;16.35;83.71;100420.69;3591711;39;20862;-63
2022/09/14 04:06:57;;;;;;;7.00;3.65;;;;;;;16.36;83.75;100425.09;3590978;39;20047;-64
2022/09/14 04:09:23;;;;;;;6.65;3.30;;;;;;;16.33;83.06;100422.69;3589780;39;20453;-63
2022/09/14 04:11:49;;;;;;;6.72;3.28;;;;;;;16.34;82.49;100420.84;3588132;39;20082;-63
2022/09/14 04:14:15;;;;;;;8.05;3.22;;;;;;;16.30;82.92;100424.81;3593088;39;20048;-63
2022/09/14 04:16:43;;;;;;;7.03;3.55;;;;;;;16.31;83.44;100430.13;3591667;39;20414;-63
2022/09/14 04:19:11;;;;;;;9.32;3.15;;;;;;;16.30;82.81;100430.25;3592762;39;20113;-64
2022/09/14 04:21:37;;;;;;;8.25;3.65;;;;;;;16.25;82.94;100423.41;3590894;39;20055;-65
2022/09/14 04:24:02;;;;;;;11.43;3.63;;;;;;;16.31;83.22;100421.13;3586390;39;20060;-65
2022/09/14 04:26:30;;;;;;;10.00;3.67;;;;;;;16.27;81.86;100425.97;3589651;39;20063;-64
2022/09/14 04:28:57;;;;;;;4.97;3.17;;;;;;;16.21;83.68;100404.84;3589647;39;20048;-64
2022/09/14 04:31:24;;;;;;;10.70;3.75;;;;;;;16.30;82.74;100420.28;3590221;39;20056;-63
2022/09/14 04:33:50;;;;;;;6.15;2.95;;;;;;;16.28;82.55;100414.13;3589311;39;20084;-64
2022/09/14 04:36:22;;;;;;;6.47;3.20;;;;;;;16.29;82.42;100418.53;3594820;39;20051;-64
2022/09/14 04:38:53;;;;;;;13.30;4.43;;;;;;;16.28;82.61;100416.84;3593137;39;20129;-63
2022/09/14 04:41:21;;;;;;;10.38;3.88;;;;;;;16.28;82.40;100407.84;3594871;39;20054;-64
2022/09/14 04:43:50;;;;;;;7.82;3.60;;;;;;;16.16;83.20;100390.84;3591581;39;20102;-64
2022/09/14 04:46:20;;;;;;;12.02;3.58;;;;;;;16.25;82.98;100407.13;3591355;39;20152;-65
2022/09/14 04:48:47;;;;;;;7.70;3.65;;;;;;;16.20;83.05;100403.13;3590490;39;20379;-62
2022/09/14 04:51:24;;;;;;;11.75;3.47;;;;;;;16.18;83.50;100405.13;3596348;39;20103;-62
2022/09/14 04:53:55;;;;;;;9.63;3.60;;;;;;;16.19;82.90;100406.84;3591585;39;20384;-64
2022/09/14 04:56:22;;;;;;;7.68;3.17;;;;;;;15.99;83.12;100374.28;3592870;39;20060;-62
2022/09/14 04:58:52;;;;;;;8.32;2.80;;;;;;;16.14;83.09;100387.41;3595781;39;20048;-63
2022/09/14 05:01:23;;;;;;;5.40;2.63;;;;;;;16.15;82.20;100394.56;3593750;39;20365;-61
2022/09/14 05:03:50;;;;;;;6.28;2.95;;;;;;;16.13;81.91;100397.41;3595705;39;20439;-64
2022/09/14 05:06:23;;;;;;;10.57;3.00;;;;;;;16.13;82.47;100391.13;3594360;39;20052;-64
2022/09/14 05:08:50;;;;;;;6.93;2.58;;;;;;;16.10;81.37;100391.41;3594910;39;20097;-64
2022/09/14 05:11:19;;;;;;;7.22;2.70;;;;;;;16.06;81.70;100381.84;3595502;39;20055;-63
2022/09/14 05:13:46;;;;;;;11.15;3.10;;;;;;;16.05;82.86;100388.25;3590928;39;20113;-64
2022/09/14 05:16:21;;;;;;;8.35;3.35;;;;;;;15.98;81.65;100385.25;3592110;39;20068;-64
2022/09/14 05:18:48;;;;;;;9.27;2.80;;;;;;;15.99;81.99;100384.28;3586887;39;20080;-63
2022/09/14 05:21:19;;;;;;;5.03;2.80;;;;;;;15.98;82.06;100380.72;3590613;39;20064;-64
2022/09/14 05:23:45;;;;;;;6.25;2.53;;;;;;;15.93;80.46;100382.97;3588215;39;20061;-64
2022/09/14 05:26:12;;;;;;;9.43;2.92;;;;;;;15.95;81.21;100383.72;3588430;39;20044;-64
2022/09/14 05:28:38;;;;;;;10.95;3.45;;;;;;;15.94;82.25;100381.97;3587088;39;20100;-64
2022/09/14 05:31:09;;;;;;;5.35;2.70;;;;;;;15.96;81.30;100389.97;3587774;39;20060;-64
2022/09/14 05:33:36;;;;;;;8.82;2.90;;;;;;;15.98;81.95;100383.41;3590250;39;20067;-64
2022/09/14 05:36:05;;;;;;;4.72;2.67;;;;;;;16.05;82.52;100388.25;3590107;39;20060;-64
2022/09/14 05:38:34;;;;;;;9.32;3.10;;;;;;;16.09;82.69;100387.00;3589843;39;20052;-63
2022/09/14 05:41:00;;;;;;;7.30;2.65;;;;;;;16.09;81.67;100389.72;3589091;39;20324;-64
2022/09/14 05:43:28;;;;;;;6.82;3.08;;;;;;;16.07;82.12;100395.25;3589491;39;20044;-64
2022/09/14 05:45:54;;;;;;;5.97;2.60;;;;;;;15.97;83.29;100370.84;3590862;39;20065;-65
2022/09/14 05:48:19;;;;;;;8.45;3.30;;;;;;;16.07;82.95;100388.97;3591096;39;20064;-66
2022/09/14 05:50:46;;;;;;;8.38;3.45;;;;;;;16.12;83.12;100395.69;3587695;39;20099;-63
2022/09/14 05:53:11;;;;;;;6.97;3.13;;;;;;;16.12;83.42;100397.56;3589813;39;20483;-64
2022/09/14 05:55:37;;;;;;;6.97;3.03;;;;;;;16.11;82.76;100399.41;3590646;39;20048;-64
2022/09/14 05:58:04;;;;;;;6.72;3.22;;;;;;;16.11;83.63;100398.53;3592135;39;20116;-65
2022/09/14 06:00:30;;;;;;;5.68;2.90;;;;;;;16.12;83.61;100400.28;3589747;39;20039;-64
2022/09/14 06:02:56;;;;;;;6.20;3.30;;;;;;;16.12;83.09;100406.53;3589668;39;20078;-64
2022/09/14 06:05:24;;;;;;;9.32;3.17;;;;;;;16.07;83.48;100394.41;3588322;39;20052;-63
2022/09/14 06:07:52;;;;;;;9.45;3.40;;;;;;;16.06;83.14;100401.69;3581518;39;20047;-63
2022/09/14 06:10:19;;;;;;;7.53;3.63;;;;;;;16.07;83.55;100397.97;3589531;39;20067;-63
2022/09/14 06:12:44;;;;;;;7.93;3.28;;;;;;;16.08;84.10;100409.66;3589112;39;20055;-63
2022/09/14 06:15:10;;;;;;;8.30;3.30;;;;;;;16.10;84.42;100410.38;3589582;39;20298;-63
2022/09/14 06:17:37;;;;;;;10.23;3.83;;;;;;;16.10;84.48;100413.94;3589257;39;20056;-64
2022/09/14 06:20:06;;;;;;;10.52;3.55;;;;;;;16.10;84.01;100413.09;3589122;39;20302;-63
2022/09/14 06:22:32;;;;;;;11.63;3.40;;;;;;;16.11;83.60;100414.81;3589723;39;20052;-64
2022/09/14 06:24:58;;;;;;;6.43;3.05;;;;;;;16.08;82.89;100417.78;3589279;39;20126;-64
2022/09/14 06:27:24;;;;;;;7.20;3.40;;;;;;;16.06;83.89;100419.81;3589535;39;20048;-65
2022/09/14 06:29:52;;;;;;;7.95;3.17;;;;;;;15.97;83.82;100403.38;3587376;39;20361;-63
2022/09/14 06:32:22;;;;;;;6.97;3.15;;;;;;;16.02;83.70;100411.09;3587631;39;20092;-64
2022/09/14 06:34:47;;;;;;;6.18;3.40;;;;;;;16.02;85.03;100405.69;3587950;39;20066;-63
2022/09/14 06:37:13;;;;;;;6.65;3.55;;;;;;;16.02;84.74;100411.09;3587967;39;21320;-62
2022/09/14 06:39:39;;;;;;;6.22;3.85;;;;;;;15.98;85.24;100393.38;3589729;39;20055;-63
2022/09/14 06:42:04;;;;;;;9.35;4.47;;;;;;;16.06;85.40;100408.97;3587047;39;20152;-64
2022/09/14 06:44:30;;;;;;;7.15;3.83;;;;;;;16.04;85.34;100400.09;3588522;39;20071;-63
2022/09/14 06:46:56;;;;;;;8.95;4.10;;;;;;;16.01;85.24;100399.38;3590711;39;20454;-63
2022/09/14 06:49:22;;;;;;;9.75;4.05;;;;;;;15.98;85.40;100402.41;3589665;39;20071;-63
2022/09/14 06:51:49;;;;;;;8.77;3.72;;;;;;;15.81;85.02;100370.53;3586565;39;20051;-64
2022/09/14 06:54:17;;;;;;;8.70;3.95;;;;;;;15.77;85.29;100352.84;3590744;39;20068;-64
2022/09/14 06:56:45;;;;;;;10.35;4.07;;;;;;;15.94;84.98;100391.97;3586775;39;20059;-65
2022/09/14 06:59:14;;;;;;;7.85;3.90;;;;;;;15.79;85.66;100358.97;3591723;39;20058;-63
2022/09/14 07:01:41;;;;;;;7.78;3.90;;;;;;;15.95;84.76;100390.94;3587396;39;20047;-64
2022/09/14 07:04:08;;;;;;;7.32;3.60;;;;;;;15.95;85.19;100388.25;3590060;39;20051;-63
2022/09/14 07:06:47;;;;;;;4.30;3.00;;;;;;;15.90;84.24;100388.69;3589381;39;20051;-65
2022/09/14 07:09:16;;;;;;;7.90;3.65;;;;;;;15.74;84.17;100366.69;3590446;39;20050;-64
2022/09/14 07:11:42;;;;;;;6.28;3.28;;;;;;;15.74;84.09;100385.66;3589976;39;20067;-63
2022/09/14 07:14:09;;;;;;;8.20;3.90;;;;;;;15.67;84.75;100368.25;3587545;39;20072;-63
2022/09/14 07:16:37;;;;;;;9.45;3.80;;;;;;;15.59;84.31;100376.16;3587889;39;20056;-65
2022/09/14 07:19:09;;;;;;;7.65;3.28;;;;;;;15.47;84.77;100378.97;3587139;39;20059;-64
2022/09/14 07:21:35;;;;;;;7.03;3.88;;;;;;;15.25;86.26;100335.84;3589319;39;20059;-63
2022/09/14 07:24:02;;;;;;;8.23;3.53;;;;;;;15.49;86.93;100366.16;3589409;39;20124;-63
2022/09/14 07:26:32;;;;;;;5.53;3.28;;;;;;;15.55;86.69;100378.28;3589814;39;20056;-64
2022/09/14 07:29:06;;;;;;;7.50;3.20;;;;;;;15.54;86.82;100374.72;3588286;39;20091;-64
2022/09/14 07:31:47;;;;;;;6.82;3.42;;;;;;;15.59;87.01;100371.59;3586787;39;20054;-64
2022/09/14 07:34:14;;;;;;;5.60;3.30;;;;;;;15.61;86.77;100369.63;3595119;39;20075;-65
2022/09/14 07:36:41;;;;;;;8.98;3.67;;;;;;;15.64;86.97;100380.19;3588700;39;20054;-64
2022/09/14 07:39:13;;;;;;;7.18;3.78;;;;;;;15.64;87.23;100395.59;3587531;39;20109;-64
2022/09/14 07:41:40;;;;;;;8.82;3.33;;;;;;;15.69;87.38;100377.06;3588294;39;20371;-64
2022/09/14 07:44:08;;;;;;;6.57;3.30;;;;;;;15.77;87.88;100375.38;3589818;39;20047;-64
2022/09/14 07:46:40;;;;;;;6.72;3.63;;;;;;;15.84;87.19;100364.84;3588135;39;20137;-63
2022/09/14 07:49:07;;;;;;;6.67;3.70;;;;;;;15.91;87.19;100370.56;3588590;39;20062;-64
2022/09/14 07:51:35;;;;;;;7.18;3.30;;;;;;;15.92;86.33;100369.53;3587763;39;20051;-65
2022/09/14 07:54:02;;;;;;;7.55;4.05;;;;;;;15.94;87.75;100363.00;3588206;39;20051;-63
2022/09/14 07:56:28;;;;;;;5.97;3.60;;;;;;;15.99;87.36;100368.88;3590569;39;20059;-64
2022/09/14 07:58:58;;;;;;;7.22;4.40;;;;;;;15.96;86.95;100352.88;3590616;39;20056;-64
2022/09/14 08:01:27;;;;;;;7.82;4.35;;;;;;;16.01;86.35;100366.84;3589828;39;20051;-63
2022/09/14 08:03:53;;;;;;;6.47;3.95;;;;;;;16.01;85.57;100366.00;3588594;39;20283;-64
2022/09/14 08:06:24;;;;;;;7.55;4.10;;;;;;;16.01;85.28;100361.41;3587710;39;20059;-65
2022/09/14 08:08:52;;;;;;;10.77;4.22;;;;;;;16.06;86.25;100362.88;3590239;39;20129;-64
2022/09/14 08:11:30;;;;;;;11.73;4.22;;;;;;;16.11;85.12;100366.00;3589357;39;20317;-66
2022/09/14 08:13:58;;;;;;;5.93;4.03;;;;;;;16.12;86.08;100367.72;3592313;39;20062;-62
2022/09/14 08:16:28;;;;;;;10.20;5.25;;;;;;;16.11;85.79;100371.41;3588759;39;20052;-64
2022/09/14 08:19:03;;;;;;;10.02;5.25;;;;;;;16.13;86.03;100367.56;3590091;39;20136;-64
2022/09/14 08:21:32;;;;;;;8.82;5.65;;;;;;;16.16;85.46;100363.72;3591495;39;20051;-64
2022/09/14 08:24:02;;;;;;;8.65;5.55;;;;;;;16.21;86.51;100366.88;3584715;39;20048;-65
2022/09/14 08:26:29;;;;;;;10.43;5.13;;;;;;;16.10;84.82;100350.75;3590580;39;20331;-65
2022/09/14 08:28:56;;;;;;;9.27;5.68;;;;;;;16.12;84.61;100362.31;3592372;39;20104;-64
2022/09/14 08:31:25;;;;;;;9.27;6.93;;;;;;;16.19;86.40;100369.72;3591047;39;20052;-64
2022/09/14 08:33:59;;;;;;;11.85;7.35;;;;;;;16.23;86.44;100373.00;3594410;39;20341;-64
2022/09/14 08:36:28;;;;;;;8.55;6.03;;;;;;;16.25;85.82;100374.56;3591619;39;20055;-64
2022/09/14 08:38:54;;;;;;;10.05;6.30;;;;;;;16.28;85.68;100370.72;3588714;39;20165;-65
2022/09/14 08:41:37;;;;;;;9.07;6.07;;;;;;;16.15;85.37;100353.91;3589534;39;20375;-64
2022/09/14 08:44:22;;;;;;;10.90;6.35;;;;;;;16.30;83.92;100370.56;3590984;39;20040;-66
2022/09/14 08:47:03;;;;;;;10.43;6.35;;;;;;;16.32;84.21;100372.16;3589770;39;20060;-63
2022/09/14 08:49:47;;;;;;;7.75;5.60;;;;;;;16.29;83.84;100379.72;3589701;39;20056;-65
2022/09/14 08:52:13;;;;;;;10.27;4.63;;;;;;;16.29;83.80;100382.44;3590493;39;20099;-64
2022/09/14 08:54:38;;;;;;;10.95;5.50;;;;;;;16.33;84.67;100379.28;3590881;39;20054;-64
2022/09/14 08:57:18;;;;;;;9.85;5.25;;;;;;;16.39;84.25;100381.41;3590778;39;20167;-65
2022/09/14 09:00:13;;;;;;;9.90;5.82;;;;;;;16.37;84.85;100386.16;3591519;39;20075;-63
2022/09/14 09:03:01;;;;;;;9.88;6.13;;;;;;;16.38;85.29;100379.72;3592066;39;20089;-63
2022/09/14 09:06:10;;;;;;;7.82;5.22;;;;;;;16.34;84.97;100383.72;3592177;39;20059;-65
2022/09/14 09:08:45;;;;;;;9.65;6.10;;;;;;;16.41;86.20;100378.56;3588158;39;20420;-63
2022/09/14 09:11:21;;;;;;;10.23;6.07;;;;;;;16.43;85.92;100371.16;3590247;39;20051;-64
2022/09/14 09:13:51;;;;;;;11.77;6.90;;;;;;;16.43;85.60;100374.72;3590631;39;20310;-64
2022/09/14 09:16:23;;;;;;;9.63;6.68;;;;;;;16.23;85.78;100346.72;3591625;39;20423;-65
2022/09/14 09:18:58;;;;;;;14.20;6.95;;;;;;;16.48;86.26;100374.28;3588721;39;20379;-64
2022/09/14 09:21:44;;;;;;;11.82;6.72;;;;;;;16.49;85.93;100370.56;3588897;39;20048;-65
2022/09/14 09:24:31;;;;;;;7.63;6.70;;;;;;;16.54;86.12;100373.72;3591843;39;20056;-65
2022/09/14 09:26:57;;;;;;;10.88;7.72;;;;;;;16.56;84.71;100376.28;3592157;39;20066;-64
2022/09/14 09:29:23;;;;;;;11.48;7.95;;;;;;;16.53;84.36;100366.56;3592759;39;20060;-65
2022/09/14 09:31:55;;;;;;;8.80;7.22;;;;;;;16.57;85.36;100367.13;3590823;39;20052;-64
2022/09/14 09:34:29;;;;;;;10.95;7.03;;;;;;;16.62;85.24;100367.56;3591596;39;20375;-65
2022/09/14 09:36:55;;;;;;;9.40;7.65;;;;;;;16.70;85.39;100367.69;3590552;39;20381;-65
2022/09/14 09:39:24;;;;;;;10.45;7.68;;;;;;;16.74;85.61;100362.81;3591011;39;20054;-64
2022/09/14 09:42:06;;;;;;;10.55;7.40;;;;;;;16.79;85.48;100369.56;3589746;39;20064;-64
2022/09/14 09:45:01;;;;;;;9.55;7.30;;;;;;;16.75;84.04;100373.56;3591022;39;20051;-64
2022/09/14 09:47:34;;;;;;;14.30;7.30;;;;;;;16.73;84.17;100375.53;3589881;39;20082;-63
2022/09/14 09:50:14;;;;;;;12.00;7.88;;;;;;;16.76;84.36;100369.00;3596207;39;20302;-62
2022/09/14 09:52:59;;;;;;;9.38;7.90;;;;;;;16.81;85.42;100375.72;3587890;39;20293;-63
2022/09/14 09:55:37;;;;;;;9.00;7.85;;;;;;;16.84;84.23;100378.13;3589081;39;20370;-64
2022/09/14 09:58:37;;;;;;;9.88;7.25;;;;;;;16.79;83.18;100372.28;3591402;39;20047;-64
2022/09/14 10:01:18;;;;;;;10.10;7.70;;;;;;;16.77;83.98;100368.84;3593492;39;20364;-64
2022/09/14 10:04:20;;;;;;;12.00;8.10;;;;;;;16.83;85.84;100370.13;3592774;39;20313;-63
2022/09/14 10:06:54;;;;;;;13.15;8.30;;;;;;;16.93;86.08;100365.50;3588992;39;20161;-64
2022/09/14 10:09:26;;;;;;;12.43;8.75;;;;;;;16.99;84.85;100370.34;3589221;39;20064;-63
2022/09/14 10:12:03;;;;;;;10.85;8.65;;;;;;;17.05;84.30;100374.34;3589936;39;20060;-64
2022/09/14 10:14:33;;;;;;;13.43;8.55;;;;;;;17.11;84.55;100379.19;3589145;39;20321;-64
2022/09/14 10:17:19;;;;;;;9.95;8.02;;;;;;;17.09;84.13;100373.03;3588663;39;20426;-63
2022/09/14 10:19:52;;;;;;;9.43;8.20;;;;;;;17.15;83.90;100372.44;3590695;39;20060;-64
2022/09/14 10:22:26;;;;;;;14.45;8.57;;;;;;;17.15;84.04;100367.88;3589076;39;20054;-62
2022/09/14 10:25:13;;;;;;;8.43;7.55;;;;;;;17.16;83.43;100366.03;3589730;39;20055;-65
2022/09/14 10:27:55;;;;;;;11.13;8.13;;;;;;;17.19;84.06;100368.44;3588630;39;20060;-62
2022/09/14 10:30:36;;;;;;;11.53;8.50;;;;;;;17.16;83.57;100374.19;3591404;39;20340;-63
2022/09/14 10:33:08;;;;;;;10.15;8.52;;;;;;;17.06;82.24;100384.19;3590362;39;20519;-63
2022/09/14 10:36:04;;;;;;;12.25;8.63;;;;;;;17.05;83.96;100375.19;3588014;39;20106;-63
2022/09/14 10:38:41;;;;;;;8.80;7.90;;;;;;;17.03;82.92;100362.75;3588591;39;20056;-63
2022/09/14 10:41:42;;;;;;;12.52;8.40;;;;;;;16.74;83.95;100320.25;3593271;39;20058;-64
2022/09/14 10:44:44;;;;;;;12.07;9.00;;;;;;;16.99;84.51;100364.94;3591088;39;20309;-65
2022/09/14 10:47:44;;;;;;;12.05;8.50;;;;;;;17.00;84.55;100363.06;3590667;39;20060;-65
2022/09/14 10:50:40;;;;;;;9.02;7.72;;;;;;;17.01;84.19;100359.38;3588970;39;20047;-65
2022/09/14 10:53:27;;;;;;;10.30;7.60;;;;;;;17.04;83.94;100362.63;3591840;39;20365;-65
2022/09/14 10:56:09;;;;;;;9.30;7.20;;;;;;;17.03;83.47;100362.75;3590880;39;20062;-65
2022/09/14 10:59:14;;;;;;;7.75;7.05;;;;;;;17.12;83.71;100367.31;3591331;39;20100;-65
2022/09/14 11:02:17;;;;;;;7.63;6.72;;;;;;;17.06;82.57;100365.19;3588626;39;20059;-64
2022/09/14 11:05:22;;;;;;;7.55;6.85;;;;;;;17.07;82.99;100361.50;3588974;39;20141;-64
2022/09/14 11:08:22;;;;;;;9.05;7.00;;;;;;;17.09;83.69;100352.16;3589080;39;20058;-65
2022/09/14 11:11:21;;;;;;;10.05;5.70;;;;;;;17.08;80.90;100358.59;3588739;39;20323;-65
2022/09/14 11:15:00;;;;;;;7.82;5.30;;;;;;;16.96;80.10;100353.50;3589644;39;20052;-64
2022/09/14 11:17:56;;;;;;;7.35;5.13;;;;;;;16.88;80.15;100348.81;3558400;39;20126;-64
2022/09/14 11:20:36;;;;;;;7.43;4.95;;;;;;;16.89;82.23;100345.94;3589332;39;20040;-63
2022/09/14 11:23:35;;;;;;;10.45;6.03;;;;;;;16.93;83.54;100338.38;3589989;39;20056;-66
2022/09/14 11:26:39;;;;;;;8.38;5.25;;;;;;;16.95;83.03;100341.78;3589616;39;20052;-63
2022/09/14 11:29:27;;;;;;;8.40;5.00;;;;;;;16.96;83.30;100348.06;3590867;39;20107;-63
2022/09/14 11:32:27;;;;;;;5.85;4.50;;;;;;;16.86;81.83;100324.53;3590957;39;20376;-64
2022/09/14 11:35:28;;;;;;;5.75;3.55;;;;;;;16.85;79.80;100339.13;3589930;39;20040;-64
2022/09/14 11:38:15;;;;;;;4.65;3.17;;;;;;;16.77;79.37;100338.97;3590527;39;20062;-62
2022/09/14 11:40:48;;;;;;;3.10;2.78;;;;;;;16.60;79.91;100312.56;3589908;39;20059;-63
2022/09/14 11:43:34;;;;;;;5.30;2.72;;;;;;;16.64;79.44;100332.97;3593082;39;20204;-63
2022/09/14 11:46:10;;;;;;;6.03;2.90;;;;;;;16.61;80.70;100331.41;3589142;39;20329;-64
2022/09/14 11:48:56;;;;;;;4.63;2.90;;;;;;;16.52;80.24;100324.16;3587697;39;20052;-63
2022/09/14 11:51:40;;;;;;;5.65;3.22;;;;;;;16.59;81.13;100338.00;3589205;39;20044;-63
2022/09/14 11:54:24;;;;;;;6.88;4.10;;;;;;;16.63;82.97;100331.28;3589897;39;20040;-64
2022/09/14 11:57:00;;;;;;;5.78;3.20;;;;;;;16.66;81.37;100333.72;3591801;39;20142;-64
2022/09/14 11:59:53;;;;;;;6.78;3.45;;;;;;;16.66;80.88;100352.69;3590172;39;20060;-66